Time,TemperatureF,DewpointF,PressureIn,WindDirection,WindDirectionDegrees,WindSpeedMPH,WindSpeedGustMPH,Humidity,HourlyPrecipIn,Conditions,Clouds,dailyrainin,SoftwareType,DateUTC
2013-04-29 00:04:00,48.7,43.8,29.92,WSW,240,0.0,1.0,83,0.00,,,0.00,VWS V14.01,2013-04-29 05:04:00,
2013-04-29 00:09:00,48.5,43.6,29.93,WSW,240,0.0,3.0,83,0.00,,,0.00,VWS V14.01,2013-04-29 05:09:00,
2013-04-29 00:14:00,48.5,43.6,29.93,SSW,202,0.0,0.0,83,0.00,,,0.00,VWS V14.01,2013-04-29 05:14:00,
2013-04-29 00:19:00,48.5,43.6,29.93,SSW,202,0.0,0.0,83,0.00,,,0.00,VWS V14.01,2013-04-29 05:19:00,
2013-04-29 00:24:00,48.5,43.6,29.93,SSW,202,0.0,0.0,83,0.00,,,0.00,VWS V14.01,2013-04-29 05:24:00,
2013-04-29 00:29:00,48.5,43.6,29.93,SSW,202,0.0,0.0,83,0.00,,,0.00,VWS V14.01,2013-04-29 05:29:00,
2013-04-29 00:34:00,48.4,43.5,29.93,SSW,202,0.0,0.0,83,0.00,,,0.00,VWS V14.01,2013-04-29 05:34:00,
2013-04-29 00:39:00,48.3,43.4,29.93,SSW,202,0.0,0.0,83,0.00,,,0.00,VWS V14.01,2013-04-29 05:39:00,
2013-04-29 00:44:00,48.3,43.4,29.93,SSW,202,0.0,0.0,83,0.00,,,0.00,VWS V14.01,2013-04-29 05:44:00,
2013-04-29 00:49:00,48.3,43.4,29.93,SSW,202,0.0,0.0,83,0.00,,,0.00,VWS V14.01,2013-04-29 05:49:00,
2013-04-29 00:55:00,48.3,43.4,29.93,SSW,202,0.0,0.0,83,0.00,,,0.00,VWS V14.01,2013-04-29 05:55:00,
2013-04-29 01:00:00,48.3,43.4,29.93,SSW,202,0.0,0.0,83,0.00,,,0.00,VWS V14.01,2013-04-29 06:00:00,
2013-04-29 01:05:00,48.1,43.2,29.93,SSW,202,0.0,0.0,83,0.00,,,0.00,VWS V14.01,2013-04-29 06:05:00,
2013-04-29 01:10:00,48.0,43.4,29.93,SSW,202,0.0,0.0,84,0.00,,,0.00,VWS V14.01,2013-04-29 06:10:00,
2013-04-29 01:15:00,47.9,43.3,29.93,SSW,202,0.0,0.0,84,0.00,,,0.00,VWS V14.01,2013-04-29 06:15:00,
2013-04-29 01:20:00,47.8,43.2,29.93,SSW,202,0.0,0.0,84,0.00,,,0.00,VWS V14.01,2013-04-29 06:20:00,
2013-04-29 01:25:00,47.8,43.2,29.93,SSW,202,0.0,0.0,84,0.00,,,0.00,VWS V14.01,2013-04-29 06:25:00,
2013-04-29 01:30:00,47.9,43.3,29.93,SSW,202,0.0,0.0,84,0.00,,,0.00,VWS V14.01,2013-04-29 06:30:00,
2013-04-29 01:35:00,47.9,43.3,29.93,SSW,202,0.0,0.0,84,0.00,,,0.00,VWS V14.01,2013-04-29 06:35:00,
2013-04-29 01:40:00,47.9,43.3,29.93,SSW,202,0.0,0.0,84,0.00,,,0.00,VWS V14.01,2013-04-29 06:40:00,
2013-04-29 01:45:00,48.0,43.4,29.92,SSW,202,0.0,0.0,84,0.00,,,0.00,VWS V14.01,2013-04-29 06:45:00,
2013-04-29 01:50:00,47.9,43.3,29.92,SSW,202,0.0,0.0,84,0.00,,,0.00,VWS V14.01,2013-04-29 06:50:00,
2013-04-29 01:55:00,47.8,43.2,29.92,SSW,202,0.0,0.0,84,0.00,,,0.00,VWS V14.01,2013-04-29 06:55:00,
2013-04-29 02:00:00,47.8,43.2,29.92,SSW,202,0.0,0.0,84,0.00,,,0.00,VWS V14.01,2013-04-29 07:00:00,
2013-04-29 02:05:00,47.6,43.0,29.92,SSW,202,0.0,0.0,84,0.00,,,0.00,VWS V14.01,2013-04-29 07:05:00,
2013-04-29 02:10:00,47.6,43.0,29.92,SSW,202,0.0,0.0,84,0.00,,,0.00,VWS V14.01,2013-04-29 07:10:00,
2013-04-29 02:15:00,47.6,43.0,29.92,SSW,202,0.0,0.0,84,0.00,,,0.00,VWS V14.01,2013-04-29 07:15:00,
2013-04-29 02:20:00,47.6,43.0,29.92,SSW,202,0.0,0.0,84,0.00,,,0.00,VWS V14.01,2013-04-29 07:20:00,
2013-04-29 02:25:00,47.8,43.2,29.91,SSW,202,0.0,0.0,84,0.00,,,0.00,VWS V14.01,2013-04-29 07:25:00,
2013-04-29 02:30:00,47.9,43.3,29.91,SSW,202,0.0,0.0,84,0.00,,,0.00,VWS V14.01,2013-04-29 07:30:00,
2013-04-29 02:35:00,47.9,43.3,29.91,SSW,202,0.0,0.0,84,0.00,,,0.00,VWS V14.01,2013-04-29 07:35:00,
2013-04-29 02:40:00,47.8,43.2,29.91,SSW,202,0.0,0.0,84,0.00,,,0.00,VWS V14.01,2013-04-29 07:40:00,
2013-04-29 02:45:00,47.7,43.1,29.91,SSW,202,0.0,0.0,84,0.00,,,0.00,VWS V14.01,2013-04-29 07:45:00,
2013-04-29 02:50:00,47.6,43.0,29.91,SSW,202,0.0,0.0,84,0.00,,,0.00,VWS V14.01,2013-04-29 07:50:00,
2013-04-29 02:55:00,47.6,43.0,29.91,SSW,202,0.0,0.0,84,0.00,,,0.00,VWS V14.01,2013-04-29 07:55:00,
2013-04-29 03:00:00,47.5,42.9,29.91,SSW,202,0.0,0.0,84,0.00,,,0.00,VWS V14.01,2013-04-29 08:00:00,
2013-04-29 03:05:00,47.3,42.7,29.91,SSW,202,0.0,0.0,84,0.00,,,0.00,VWS V14.01,2013-04-29 08:05:00,
2013-04-29 03:10:00,47.1,42.5,29.91,SSW,202,0.0,0.0,84,0.00,,,0.00,VWS V14.01,2013-04-29 08:10:00,
2013-04-29 03:15:00,47.0,42.4,29.91,SSW,202,0.0,0.0,84,0.00,,,0.00,VWS V14.01,2013-04-29 08:15:00,
2013-04-29 03:20:00,46.8,42.2,29.91,SSW,202,0.0,0.0,84,0.00,,,0.00,VWS V14.01,2013-04-29 08:20:00,
2013-04-29 03:25:00,46.7,42.1,29.92,SSW,202,0.0,0.0,84,0.00,,,0.00,VWS V14.01,2013-04-29 08:25:00,
2013-04-29 03:30:00,46.6,42.0,29.91,SSW,202,0.0,0.0,84,0.00,,,0.00,VWS V14.01,2013-04-29 08:30:00,
2013-04-29 03:35:00,46.4,41.8,29.92,SSW,202,0.0,0.0,84,0.00,,,0.00,VWS V14.01,2013-04-29 08:35:00,
2013-04-29 03:40:00,46.2,41.6,29.92,SSW,202,0.0,0.0,84,0.00,,,0.00,VWS V14.01,2013-04-29 08:40:00,
2013-04-29 03:45:00,46.1,41.5,29.92,SSW,202,0.0,0.0,84,0.00,,,0.00,VWS V14.01,2013-04-29 08:45:00,
2013-04-29 03:50:00,45.9,41.3,29.92,SSW,202,0.0,0.0,84,0.00,,,0.00,VWS V14.01,2013-04-29 08:50:00,
2013-04-29 03:55:00,45.8,41.2,29.92,SSW,202,0.0,0.0,84,0.00,,,0.00,VWS V14.01,2013-04-29 08:55:00,
2013-04-29 04:00:00,45.8,41.2,29.92,SSW,202,0.0,0.0,84,0.00,,,0.00,VWS V14.01,2013-04-29 09:00:00,
2013-04-29 04:05:00,45.9,41.3,29.92,SSW,202,0.0,0.0,84,0.00,,,0.00,VWS V14.01,2013-04-29 09:05:00,
2013-04-29 04:10:00,46.1,41.5,29.92,SSW,202,0.0,0.0,84,0.00,,,0.00,VWS V14.01,2013-04-29 09:10:00,
2013-04-29 04:15:00,46.4,41.8,29.92,SSW,202,0.0,0.0,84,0.00,,,0.00,VWS V14.01,2013-04-29 09:15:00,
2013-04-29 04:20:00,46.6,42.0,29.92,SSW,202,0.0,0.0,84,0.00,,,0.00,VWS V14.01,2013-04-29 09:20:00,
2013-04-29 04:25:00,46.6,42.0,29.92,SSW,202,0.0,0.0,84,0.00,,,0.00,VWS V14.01,2013-04-29 09:25:00,
2013-04-29 04:30:00,46.8,42.2,29.92,SSW,202,0.0,0.0,84,0.00,,,0.00,VWS V14.01,2013-04-29 09:30:00,
2013-04-29 04:35:00,46.9,42.3,29.92,SSW,202,0.0,0.0,84,0.00,,,0.00,VWS V14.01,2013-04-29 09:35:00,
2013-04-29 04:40:00,47.3,42.7,29.92,SSW,202,0.0,0.0,84,0.00,,,0.00,VWS V14.01,2013-04-29 09:40:00,
2013-04-29 04:45:00,47.5,42.9,29.92,SSW,202,0.0,0.0,84,0.00,,,0.00,VWS V14.01,2013-04-29 09:45:00,
2013-04-29 04:50:00,47.2,42.6,29.92,SSW,202,0.0,0.0,84,0.00,,,0.00,VWS V14.01,2013-04-29 09:50:00,
2013-04-29 04:55:00,47.0,42.4,29.93,SSW,202,0.0,0.0,84,0.00,,,0.00,VWS V14.01,2013-04-29 09:55:00,
2013-04-29 05:00:00,46.9,42.3,29.93,SSW,202,0.0,0.0,84,0.00,,,0.00,VWS V14.01,2013-04-29 10:00:00,
2013-04-29 05:05:00,46.9,42.3,29.93,SSW,202,0.0,0.0,84,0.00,,,0.00,VWS V14.01,2013-04-29 10:05:00,
2013-04-29 05:10:00,46.8,42.2,29.93,SSW,202,0.0,0.0,84,0.00,,,0.00,VWS V14.01,2013-04-29 10:10:00,
2013-04-29 05:15:00,46.9,42.3,29.93,SSW,202,0.0,0.0,84,0.00,,,0.00,VWS V14.01,2013-04-29 10:15:00,
2013-04-29 05:20:00,46.9,42.3,29.93,SSW,202,0.0,0.0,84,0.00,,,0.00,VWS V14.01,2013-04-29 10:20:00,
2013-04-29 05:25:00,46.9,42.3,29.93,SSW,202,0.0,0.0,84,0.00,,,0.00,VWS V14.01,2013-04-29 10:25:00,
2013-04-29 05:30:00,46.9,42.3,29.93,SSW,202,0.0,0.0,84,0.00,,,0.00,VWS V14.01,2013-04-29 10:30:00,
2013-04-29 05:35:00,47.0,42.4,29.93,SSW,202,0.0,0.0,84,0.00,,,0.00,VWS V14.01,2013-04-29 10:35:00,
2013-04-29 05:41:00,47.1,42.5,29.93,SSW,202,0.0,0.0,84,0.00,,,0.00,VWS V14.01,2013-04-29 10:41:00,
2013-04-29 05:50:00,46.8,42.2,29.94,SSW,202,0.0,1.0,84,0.00,,,0.00,VWS V14.01,2013-04-29 10:50:00,
2013-04-29 05:55:00,46.9,42.3,29.94,SSW,202,0.0,0.0,84,0.00,,,0.00,VWS V14.01,2013-04-29 10:55:00,
2013-04-29 06:00:00,47.0,42.4,29.94,SSW,202,0.0,0.0,84,0.00,,,0.00,VWS V14.01,2013-04-29 11:00:00,
2013-04-29 06:05:00,47.2,42.6,29.94,SSW,202,0.0,0.0,84,0.00,,,0.00,VWS V14.01,2013-04-29 11:05:00,
2013-04-29 06:10:00,47.4,43.1,29.94,SSW,202,0.0,0.0,85,0.00,,,0.00,VWS V14.01,2013-04-29 11:10:00,
2013-04-29 06:15:00,47.8,43.5,29.94,SSW,202,0.0,1.0,85,0.00,,,0.00,VWS V14.01,2013-04-29 11:15:00,
2013-04-29 06:20:00,47.9,43.3,29.94,SSW,202,0.0,1.0,84,0.00,,,0.00,VWS V14.01,2013-04-29 11:20:00,
2013-04-29 06:25:00,47.8,43.2,29.94,SSW,202,0.0,0.0,84,0.00,,,0.00,VWS V14.01,2013-04-29 11:25:00,
2013-04-29 06:30:00,48.0,43.4,29.94,SSW,202,0.0,1.0,84,0.00,,,0.00,VWS V14.01,2013-04-29 11:30:00,
2013-04-29 06:35:00,48.8,44.5,29.95,SSW,202,0.0,1.0,85,0.00,,,0.00,VWS V14.01,2013-04-29 11:35:00,
2013-04-29 06:40:00,49.4,45.1,29.95,South,189,0.0,5.0,85,0.00,,,0.00,VWS V14.01,2013-04-29 11:40:00,
2013-04-29 06:45:00,49.7,45.4,29.96,South,189,1.0,3.0,85,0.00,,,0.00,VWS V14.01,2013-04-29 11:45:00,
2013-04-29 06:50:00,50.0,45.7,29.95,South,189,0.0,3.0,85,0.00,,,0.00,VWS V14.01,2013-04-29 11:50:00,
2013-04-29 06:55:00,50.1,45.8,29.95,South,189,0.0,1.0,85,0.00,,,0.00,VWS V14.01,2013-04-29 11:55:00,
2013-04-29 07:00:00,50.3,45.7,29.96,South,188,0.0,3.0,84,0.00,,,0.00,VWS V14.01,2013-04-29 12:00:00,
2013-04-29 07:05:00,50.5,46.2,29.96,South,188,0.0,1.0,85,0.00,,,0.00,VWS V14.01,2013-04-29 12:05:00,
2013-04-29 07:10:00,50.7,46.4,29.96,South,188,0.0,5.0,85,0.00,,,0.00,VWS V14.01,2013-04-29 12:10:00,
2013-04-29 07:15:00,51.0,46.7,29.96,SSE,159,0.0,5.0,85,0.00,,,0.00,VWS V14.01,2013-04-29 12:15:00,
2013-04-29 07:20:00,51.1,46.8,29.96,South,187,0.0,5.0,85,0.00,,,0.00,VWS V14.01,2013-04-29 12:20:00,
2013-04-29 07:25:00,51.2,46.8,29.96,South,184,0.0,2.0,85,0.00,,,0.00,VWS V14.01,2013-04-29 12:25:00,
2013-04-29 07:30:00,51.4,47.0,29.96,South,184,0.0,2.0,85,0.00,,,0.00,VWS V14.01,2013-04-29 12:30:00,
2013-04-29 07:35:00,51.6,47.2,29.96,South,182,0.0,4.0,85,0.00,,,0.00,VWS V14.01,2013-04-29 12:35:00,
2013-04-29 07:40:00,52.0,47.6,29.96,South,186,4.0,4.0,85,0.00,,,0.00,VWS V14.01,2013-04-29 12:40:00,
2013-04-29 07:45:00,52.6,48.2,29.96,South,186,2.0,3.0,85,0.00,,,0.00,VWS V14.01,2013-04-29 12:45:00,
2013-04-29 07:50:00,53.1,48.7,29.96,South,186,0.0,5.0,85,0.00,,,0.00,VWS V14.01,2013-04-29 12:50:00,
2013-04-29 07:55:00,53.5,49.1,29.96,South,186,0.0,4.0,85,0.00,,,0.00,VWS V14.01,2013-04-29 12:55:00,
2013-04-29 08:00:00,53.8,49.4,29.96,South,182,2.0,6.0,85,0.00,,,0.00,VWS V14.01,2013-04-29 13:00:00,
2013-04-29 08:05:00,54.0,49.6,29.96,South,188,3.0,6.0,85,0.00,,,0.00,VWS V14.01,2013-04-29 13:05:00,
2013-04-29 08:10:00,54.0,49.6,29.96,South,188,2.0,6.0,85,0.00,,,0.00,VWS V14.01,2013-04-29 13:10:00,
2013-04-29 08:16:00,54.3,49.9,29.96,South,188,0.0,4.0,85,0.00,,,0.00,VWS V14.01,2013-04-29 13:16:00,
2013-04-29 08:21:00,54.7,50.3,29.96,South,188,0.0,4.0,85,0.00,,,0.00,VWS V14.01,2013-04-29 13:21:00,
2013-04-29 08:26:00,55.0,50.6,29.96,South,182,6.0,9.0,85,0.00,,,0.00,VWS V14.01,2013-04-29 13:26:00,
2013-04-29 08:31:00,55.0,50.3,29.96,South,184,4.0,9.0,84,0.00,,,0.00,VWS V14.01,2013-04-29 13:31:00,
2013-04-29 08:36:00,55.3,50.6,29.96,South,188,3.0,7.0,84,0.00,,,0.00,VWS V14.01,2013-04-29 13:36:00,
2013-04-29 08:41:00,55.7,51.0,29.96,South,187,4.0,9.0,84,0.00,,,0.00,VWS V14.01,2013-04-29 13:41:00,
2013-04-29 08:46:00,56.3,51.5,29.96,South,189,3.0,9.0,84,0.00,,CLR,0.00,VWS V14.01,2013-04-29 13:46:00,
2013-04-29 08:51:00,56.9,52.1,29.95,South,188,6.0,9.0,84,0.00,,CLR,0.00,VWS V14.01,2013-04-29 13:51:00,
2013-04-29 08:56:00,57.4,52.6,29.96,South,184,5.0,8.0,84,0.00,,CLR,0.00,VWS V14.01,2013-04-29 13:56:00,
2013-04-29 09:01:00,58.1,53.0,29.96,SSW,197,4.0,8.0,83,0.00,,CLR,0.00,VWS V14.01,2013-04-29 14:01:00,
2013-04-29 09:06:00,58.7,53.6,29.95,South,176,4.0,10.0,83,0.00,,CLR,0.00,VWS V14.01,2013-04-29 14:06:00,
2013-04-29 09:11:00,59.5,54.3,29.95,South,171,2.0,10.0,83,0.00,,CLR,0.00,VWS V14.01,2013-04-29 14:11:00,
2013-04-29 09:16:00,60.0,54.8,29.95,SSW,198,4.0,9.0,83,0.00,,CLR,0.00,VWS V14.01,2013-04-29 14:16:00,
2013-04-29 09:21:00,60.4,54.9,29.95,SSW,196,7.0,10.0,82,0.00,,CLR,0.00,VWS V14.01,2013-04-29 14:21:00,
2013-04-29 09:26:00,60.8,55.3,29.95,South,173,4.0,9.0,82,0.00,,CLR,0.00,VWS V14.01,2013-04-29 14:26:00,
2013-04-29 09:31:00,61.3,55.4,29.95,South,179,1.0,10.0,81,0.00,,CLR,0.00,VWS V14.01,2013-04-29 14:31:00,
2013-04-29 09:36:00,61.7,55.5,29.95,South,186,4.0,10.0,80,0.00,,CLR,0.00,VWS V14.01,2013-04-29 14:36:00,
2013-04-29 09:41:00,62.0,55.4,29.95,SSW,198,3.0,13.0,79,0.00,,CLR,0.00,VWS V14.01,2013-04-29 14:41:00,
2013-04-29 09:46:00,62.3,55.4,29.95,SSW,209,7.0,12.0,78,0.00,,CLR,0.00,VWS V14.01,2013-04-29 14:46:00,
2013-04-29 09:51:00,62.9,55.9,29.95,SSW,198,5.0,12.0,78,0.00,,CLR,0.00,VWS V14.01,2013-04-29 14:51:00,
2013-04-29 09:56:00,63.3,56.0,29.95,SSW,194,9.0,9.0,77,0.00,,CLR,0.00,VWS V14.01,2013-04-29 14:56:00,
2013-04-29 10:01:00,63.8,56.5,29.95,South,187,0.0,9.0,77,0.00,,CLR,0.00,VWS V14.01,2013-04-29 15:01:00,
2013-04-29 10:06:00,63.8,56.1,29.95,SW,233,4.0,16.0,76,0.00,,CLR,0.00,VWS V14.01,2013-04-29 15:06:00,
2013-04-29 10:11:00,64.1,56.4,29.95,SSW,193,3.0,16.0,76,0.00,,CLR,0.00,VWS V14.01,2013-04-29 15:11:00,
2013-04-29 10:16:00,64.7,57.0,29.95,SW,223,2.0,8.0,76,0.00,,CLR,0.00,VWS V14.01,2013-04-29 15:16:00,
2013-04-29 10:21:00,64.8,56.3,29.95,SSW,202,4.0,10.0,74,0.00,,CLR,0.00,VWS V14.01,2013-04-29 15:21:00,
2013-04-29 10:26:00,64.7,56.2,29.95,SW,229,5.0,12.0,74,0.00,,CLR,0.00,VWS V14.01,2013-04-29 15:26:00,
2013-04-29 10:31:00,65.1,57.0,29.95,SW,225,4.0,12.0,75,0.00,,CLR,0.00,VWS V14.01,2013-04-29 15:31:00,
2013-04-29 10:36:00,65.5,57.0,29.95,South,180,6.0,9.0,74,0.00,,CLR,0.00,VWS V14.01,2013-04-29 15:36:00,
2013-04-29 10:41:00,65.2,56.0,29.94,South,188,14.0,14.0,72,0.00,,CLR,0.00,VWS V14.01,2013-04-29 15:41:00,
2013-04-29 10:46:00,65.1,55.9,29.95,SSW,194,5.0,12.0,72,0.00,,CLR,0.00,VWS V14.01,2013-04-29 15:46:00,
2013-04-29 10:51:00,65.8,56.9,29.95,SW,214,6.0,12.0,73,0.00,,CLR,0.00,VWS V14.01,2013-04-29 15:51:00,
2013-04-29 10:56:00,65.9,56.6,29.95,South,182,7.0,13.0,72,0.00,,CLR,0.00,VWS V14.01,2013-04-29 15:56:00,
2013-04-29 11:01:00,66.0,56.7,29.95,SSW,193,7.0,13.0,72,0.00,,CLR,0.00,VWS V14.01,2013-04-29 16:01:00,
2013-04-29 11:06:00,66.1,57.2,29.95,SSW,194,6.0,11.0,73,0.00,,CLR,0.00,VWS V14.01,2013-04-29 16:06:00,
2013-04-29 11:11:00,66.3,57.0,29.95,SW,232,5.0,12.0,72,0.00,,CLR,0.00,VWS V14.01,2013-04-29 16:11:00,
2013-04-29 11:16:00,66.5,57.2,29.94,SSW,201,2.0,10.0,72,0.00,,CLR,0.00,VWS V14.01,2013-04-29 16:16:00,
2013-04-29 11:21:00,66.7,57.0,29.94,South,188,8.0,12.0,71,0.00,,CLR,0.00,VWS V14.01,2013-04-29 16:21:00,
2013-04-29 11:26:00,66.3,57.0,29.94,SSW,192,6.0,12.0,72,0.00,,CLR,0.00,VWS V14.01,2013-04-29 16:26:00,
2013-04-29 11:31:00,66.5,57.2,29.94,South,176,7.0,12.0,72,0.00,,CLR,0.00,VWS V14.01,2013-04-29 16:31:00,
2013-04-29 11:36:00,66.6,57.3,29.94,SSW,198,5.0,13.0,72,0.00,,CLR,0.00,VWS V14.01,2013-04-29 16:36:00,
2013-04-29 11:41:00,67.2,58.3,29.93,SSE,157,2.0,14.0,73,0.00,,CLR,0.00,VWS V14.01,2013-04-29 16:41:00,
2013-04-29 11:46:00,67.5,58.2,29.94,SSW,197,5.0,10.0,72,0.00,,CLR,0.00,VWS V14.01,2013-04-29 16:46:00,
2013-04-29 11:51:00,67.6,58.3,29.94,South,190,0.0,10.0,72,0.00,,CLR,0.00,VWS V14.01,2013-04-29 16:51:00,
2013-04-29 11:56:00,67.7,58.4,29.93,South,185,14.0,14.0,72,0.00,,CLR,0.00,VWS V14.01,2013-04-29 16:56:00,
2013-04-29 12:01:00,68.1,58.3,29.93,SSW,194,6.0,14.0,71,0.00,,CLR,0.00,VWS V14.01,2013-04-29 17:01:00,
2013-04-29 12:06:00,68.1,59.1,29.93,South,184,8.0,9.0,73,0.00,,CLR,0.00,VWS V14.01,2013-04-29 17:06:00,
2013-04-29 12:11:00,68.2,58.5,29.93,SSE,165,0.0,11.0,71,0.00,,CLR,0.00,VWS V14.01,2013-04-29 17:11:00,
2013-04-29 12:16:00,68.1,58.0,29.92,South,191,7.0,14.0,70,0.00,,CLR,0.00,VWS V14.01,2013-04-29 17:16:00,
2013-04-29 12:21:00,67.9,58.5,29.92,SSW,204,5.0,14.0,72,0.00,,CLR,0.00,VWS V14.01,2013-04-29 17:21:00,
2013-04-29 12:26:00,68.4,59.0,29.92,South,183,7.0,11.0,72,0.00,,CLR,0.00,VWS V14.01,2013-04-29 17:26:00,
2013-04-29 12:31:00,68.5,59.1,29.92,SSW,193,7.0,13.0,72,0.00,,CLR,0.00,VWS V14.01,2013-04-29 17:31:00,
2013-04-29 12:36:00,69.4,59.2,29.92,South,186,4.0,13.0,70,0.00,,CLR,0.00,VWS V14.01,2013-04-29 17:36:00,
2013-04-29 12:41:00,69.2,59.4,29.92,South,183,8.0,13.0,71,0.00,,CLR,0.00,VWS V14.01,2013-04-29 17:41:00,
2013-04-29 12:46:00,69.6,59.8,29.92,SSW,197,5.0,13.0,71,0.00,,CLR,0.00,VWS V14.01,2013-04-29 17:46:00,
2013-04-29 12:51:00,69.5,59.3,29.92,South,189,4.0,13.0,70,0.00,,CLR,0.00,VWS V14.01,2013-04-29 17:51:00,
2013-04-29 12:56:00,69.9,59.7,29.92,South,174,9.0,9.0,70,0.00,,CLR,0.00,VWS V14.01,2013-04-29 17:56:00,
2013-04-29 13:01:00,70.0,59.4,29.92,SSW,205,9.0,10.0,69,0.00,,CLR,0.00,VWS V14.01,2013-04-29 18:01:00,
2013-04-29 13:06:00,70.4,59.8,29.92,SW,224,5.0,8.0,69,0.00,,CLR,0.00,VWS V14.01,2013-04-29 18:06:00,
2013-04-29 13:11:00,70.6,59.5,29.92,South,185,11.0,11.0,68,0.00,,CLR,0.00,VWS V14.01,2013-04-29 18:11:00,
2013-04-29 13:16:00,70.4,59.3,29.92,South,175,10.0,13.0,68,0.00,,CLR,0.00,VWS V14.01,2013-04-29 18:16:00,
2013-04-29 13:21:00,70.9,60.2,29.91,South,176,2.0,13.0,69,0.00,,CLR,0.00,VWS V14.01,2013-04-29 18:21:00,
2013-04-29 13:26:00,71.1,60.0,29.91,SSW,213,2.0,7.0,68,0.00,,CLR,0.00,VWS V14.01,2013-04-29 18:26:00,
2013-04-29 13:31:00,71.3,60.2,29.91,SW,230,5.0,13.0,68,0.00,,CLR,0.00,VWS V14.01,2013-04-29 18:31:00,
2013-04-29 13:36:00,70.9,59.4,29.91,SSE,161,2.0,10.0,67,0.00,,,0.00,VWS V14.01,2013-04-29 18:36:00,
2013-04-29 13:41:00,71.0,59.5,29.90,SW,224,5.0,11.0,67,0.00,,,0.00,VWS V14.01,2013-04-29 18:41:00,
2013-04-29 13:46:00,71.0,59.5,29.90,South,178,7.0,15.0,67,0.00,,CLR,0.00,VWS V14.01,2013-04-29 18:46:00,
2013-04-29 13:51:00,71.3,59.8,29.90,SSW,194,5.0,15.0,67,0.00,,CLR,0.00,VWS V14.01,2013-04-29 18:51:00,
2013-04-29 13:56:00,71.5,60.0,29.90,South,171,8.0,9.0,67,0.00,,CLR,0.00,VWS V14.01,2013-04-29 18:56:00,
2013-04-29 14:01:00,71.7,59.8,29.90,SSW,197,7.0,11.0,66,0.00,,CLR,0.00,VWS V14.01,2013-04-29 19:01:00,
2013-04-29 14:06:00,71.7,59.8,29.90,South,182,6.0,11.0,66,0.00,,CLR,0.00,VWS V14.01,2013-04-29 19:06:00,
2013-04-29 14:11:00,72.1,59.7,29.89,South,184,5.0,11.0,65,0.00,,CLR,0.00,VWS V14.01,2013-04-29 19:11:00,
2013-04-29 14:16:00,72.0,59.6,29.89,SSW,210,7.0,11.0,65,0.00,,CLR,0.00,VWS V14.01,2013-04-29 19:16:00,
2013-04-29 14:21:00,72.4,60.4,29.89,South,189,3.0,12.0,66,0.00,,CLR,0.00,VWS V14.01,2013-04-29 19:21:00,
2013-04-29 14:26:00,72.7,60.7,29.88,SSW,196,4.0,13.0,66,0.00,,CLR,0.00,VWS V14.01,2013-04-29 19:26:00,
2013-04-29 14:31:00,72.5,59.2,29.88,South,184,7.0,13.0,63,0.00,,CLR,0.00,VWS V14.01,2013-04-29 19:31:00,
2013-04-29 14:36:00,72.9,59.6,29.88,South,191,7.0,11.0,63,0.00,,CLR,0.00,VWS V14.01,2013-04-29 19:36:00,
2013-04-29 14:41:00,73.3,60.8,29.88,South,180,8.0,11.0,65,0.00,,CLR,0.00,VWS V14.01,2013-04-29 19:41:00,
2013-04-29 14:46:00,73.3,60.4,29.88,SSW,200,7.0,12.0,64,0.00,,CLR,0.00,VWS V14.01,2013-04-29 19:46:00,
2013-04-29 14:51:00,73.2,59.4,29.88,SSE,157,11.0,12.0,62,0.00,,CLR,0.00,VWS V14.01,2013-04-29 19:51:00,
2013-04-29 14:56:00,73.4,60.0,29.87,SSE,160,5.0,11.0,63,0.00,,CLR,0.00,VWS V14.01,2013-04-29 19:56:00,
2013-04-29 15:01:00,73.2,59.9,29.87,SSW,193,5.0,5.0,63,0.00,,CLR,0.00,VWS V14.01,2013-04-29 20:01:00,
2013-04-29 15:06:00,73.9,59.6,29.87,South,172,5.0,9.0,61,0.00,,CLR,0.00,VWS V14.01,2013-04-29 20:06:00,
2013-04-29 15:11:00,74.2,60.4,29.87,South,191,4.0,4.0,62,0.00,,CLR,0.00,VWS V14.01,2013-04-29 20:11:00,
2013-04-29 15:16:00,74.5,61.1,29.86,South,186,11.0,13.0,63,0.00,,CLR,0.00,VWS V14.01,2013-04-29 20:16:00,
2013-04-29 15:21:00,74.0,60.2,29.86,SSW,211,3.0,3.0,62,0.00,,CLR,0.00,VWS V14.01,2013-04-29 20:21:00,
2013-04-29 15:26:00,74.4,60.1,29.86,SSW,194,3.0,9.0,61,0.00,,CLR,0.00,VWS V14.01,2013-04-29 20:26:00,
2013-04-29 15:31:00,74.5,60.6,29.85,SSE,160,1.0,1.0,62,0.00,,CLR,0.00,VWS V14.01,2013-04-29 20:31:00,
2013-04-29 15:36:00,74.6,60.3,29.85,SSW,210,5.0,16.0,61,0.00,,CLR,0.00,VWS V14.01,2013-04-29 20:36:00,
2013-04-29 15:41:00,74.3,60.0,29.85,SSE,168,1.0,1.0,61,0.00,,CLR,0.00,VWS V14.01,2013-04-29 20:41:00,
2013-04-29 15:46:00,74.6,59.8,29.85,South,178,4.0,10.0,60,0.00,,CLR,0.00,VWS V14.01,2013-04-29 20:46:00,
2013-04-29 15:51:00,74.6,59.8,29.85,South,188,4.0,5.0,60,0.00,,CLR,0.00,VWS V14.01,2013-04-29 20:51:00,
2013-04-29 15:56:00,74.6,59.8,29.84,South,191,5.0,10.0,60,0.00,,CLR,0.00,VWS V14.01,2013-04-29 20:56:00,
2013-04-29 16:01:00,74.7,60.4,29.84,South,186,4.0,5.0,61,0.00,,CLR,0.00,VWS V14.01,2013-04-29 21:01:00,
2013-04-29 16:06:00,74.8,60.0,29.84,South,187,5.0,9.0,60,0.00,,CLR,0.00,VWS V14.01,2013-04-29 21:06:00,
2013-04-29 16:11:00,75.1,61.2,29.84,SSW,194,6.0,7.0,62,0.00,,CLR,0.00,VWS V14.01,2013-04-29 21:11:00,
2013-04-29 16:16:00,74.6,59.8,29.84,South,171,4.0,13.0,60,0.00,,CLR,0.00,VWS V14.01,2013-04-29 21:16:00,
2013-04-29 16:21:00,74.6,59.8,29.83,SSW,192,4.0,5.0,60,0.00,,CLR,0.00,VWS V14.01,2013-04-29 21:21:00,
2013-04-29 16:26:00,74.9,60.6,29.83,SSW,196,6.0,12.0,61,0.00,,CLR,0.00,VWS V14.01,2013-04-29 21:26:00,
2013-04-29 16:31:00,74.7,60.8,29.83,SSW,200,1.0,2.0,62,0.00,,CLR,0.00,VWS V14.01,2013-04-29 21:31:00,
2013-04-29 16:36:00,74.9,60.6,29.83,South,187,2.0,11.0,61,0.00,,CLR,0.00,VWS V14.01,2013-04-29 21:36:00,
2013-04-29 16:41:00,75.0,61.1,29.83,South,173,4.0,4.0,62,0.00,,CLR,0.00,VWS V14.01,2013-04-29 21:41:00,
2013-04-29 16:46:00,75.0,60.7,29.83,South,182,7.0,11.0,61,0.00,,CLR,0.00,VWS V14.01,2013-04-29 21:46:00,
2013-04-29 16:51:00,74.8,61.4,29.83,SE,132,4.0,6.0,63,0.00,,CLR,0.00,VWS V14.01,2013-04-29 21:51:00,
2013-04-29 16:56:00,74.8,60.9,29.83,SSW,207,4.0,9.0,62,0.00,,CLR,0.00,VWS V14.01,2013-04-29 21:56:00,
2013-04-29 17:01:00,74.8,60.9,29.83,South,184,5.0,5.0,62,0.00,,CLR,0.00,VWS V14.01,2013-04-29 22:01:00,
2013-04-29 17:06:00,74.9,61.5,29.83,South,190,12.0,12.0,63,0.00,,CLR,0.00,VWS V14.01,2013-04-29 22:06:00,
2013-04-29 17:11:00,74.6,60.7,29.83,SSW,204,5.0,6.0,62,0.00,,CLR,0.00,VWS V14.01,2013-04-29 22:11:00,
2013-04-29 17:16:00,74.4,60.1,29.83,SSW,193,5.0,11.0,61,0.00,,CLR,0.00,VWS V14.01,2013-04-29 22:16:00,
2013-04-29 17:21:00,74.2,59.9,29.83,SSW,194,4.0,10.0,61,0.00,,CLR,0.00,VWS V14.01,2013-04-29 22:21:00,
2013-04-29 17:26:00,74.2,60.4,29.83,South,175,5.0,11.0,62,0.00,,CLR,0.00,VWS V14.01,2013-04-29 22:26:00,
2013-04-29 17:32:00,74.1,60.3,29.83,South,186,5.0,6.0,62,0.00,,CLR,0.00,VWS V14.01,2013-04-29 22:32:00,
2013-04-29 17:37:00,74.2,60.4,29.83,SSE,157,7.0,10.0,62,0.00,,CLR,0.00,VWS V14.01,2013-04-29 22:37:00,
2013-04-29 17:42:00,73.9,60.5,29.83,SSE,158,4.0,7.0,63,0.00,,CLR,0.00,VWS V14.01,2013-04-29 22:42:00,
2013-04-29 17:47:00,73.7,59.9,29.83,South,178,2.0,8.0,62,0.00,,CLR,0.00,VWS V14.01,2013-04-29 22:47:00,
2013-04-29 17:52:00,73.6,59.8,29.83,South,178,1.0,5.0,62,0.00,,CLR,0.00,VWS V14.01,2013-04-29 22:52:00,
2013-04-29 17:57:00,73.6,60.7,29.83,SSE,165,4.0,8.0,64,0.00,,CLR,0.00,VWS V14.01,2013-04-29 22:57:00,
2013-04-29 18:02:00,73.5,60.2,29.83,South,180,4.0,8.0,63,0.00,,CLR,0.00,VWS V14.01,2013-04-29 23:02:00,
2013-04-29 18:07:00,73.2,60.3,29.83,South,171,0.0,8.0,64,0.00,,CLR,0.00,VWS V14.01,2013-04-29 23:07:00,
2013-04-29 18:12:00,73.1,59.8,29.83,SSW,193,5.0,5.0,63,0.00,,CLR,0.00,VWS V14.01,2013-04-29 23:12:00,
2013-04-29 18:17:00,72.8,59.9,29.83,SE,145,5.0,12.0,64,0.00,,CLR,0.00,VWS V14.01,2013-04-29 23:17:00,
2013-04-29 18:22:00,72.6,59.7,29.83,South,187,4.0,8.0,64,0.00,,CLR,0.00,VWS V14.01,2013-04-29 23:22:00,
2013-04-29 18:27:00,72.5,59.6,29.83,SSE,157,2.0,11.0,64,0.00,,CLR,0.00,VWS V14.01,2013-04-29 23:27:00,
2013-04-29 18:32:00,72.4,59.5,29.83,South,173,0.0,4.0,64,0.00,,CLR,0.00,VWS V14.01,2013-04-29 23:32:00,
2013-04-29 18:37:00,72.3,59.9,29.83,South,189,3.0,8.0,65,0.00,,CLR,0.00,VWS V14.01,2013-04-29 23:37:00,
2013-04-29 18:42:00,72.1,59.7,29.83,South,175,1.0,2.0,65,0.00,,CLR,0.00,VWS V14.01,2013-04-29 23:42:00,
2013-04-29 18:47:00,71.8,59.4,29.82,SSW,194,3.0,9.0,65,0.00,,CLR,0.00,VWS V14.01,2013-04-29 23:47:00,
2013-04-29 18:52:00,71.7,59.3,29.82,SSE,167,4.0,5.0,65,0.00,,CLR,0.00,VWS V14.01,2013-04-29 23:52:00,
2013-04-29 18:57:00,71.5,59.1,29.83,SSE,163,1.0,10.0,65,0.00,,CLR,0.00,VWS V14.01,2013-04-29 23:57:00,
2013-04-29 19:02:00,71.2,58.8,29.83,SSE,161,5.0,7.0,65,0.00,,CLR,0.00,VWS V14.01,2013-04-30 00:02:00,
2013-04-29 19:07:00,71.1,59.2,29.83,SSE,167,4.0,8.0,66,0.00,,CLR,0.00,VWS V14.01,2013-04-30 00:07:00,
2013-04-29 19:12:00,70.8,58.9,29.83,South,178,2.0,9.0,66,0.00,,CLR,0.00,VWS V14.01,2013-04-30 00:12:00,
2013-04-29 19:17:00,70.6,59.1,29.83,South,171,1.0,9.0,67,0.00,,CLR,0.00,VWS V14.01,2013-04-30 00:17:00,
2013-04-29 19:22:00,70.3,58.8,29.83,SE,141,0.0,1.0,67,0.00,,CLR,0.00,VWS V14.01,2013-04-30 00:22:00,
2013-04-29 19:27:00,70.1,59.1,29.83,SSW,201,0.0,5.0,68,0.00,,CLR,0.00,VWS V14.01,2013-04-30 00:27:00,
2013-04-29 19:32:00,69.7,58.7,29.83,SSE,161,0.0,1.0,68,0.00,,CLR,0.00,VWS V14.01,2013-04-30 00:32:00,
2013-04-29 19:37:00,69.4,58.8,29.83,SSW,194,0.0,6.0,69,0.00,,CLR,0.00,VWS V14.01,2013-04-30 00:37:00,
2013-04-29 19:42:00,69.1,58.5,29.83,SSE,159,0.0,4.0,69,0.00,,CLR,0.00,VWS V14.01,2013-04-30 00:42:00,
2013-04-29 19:47:00,68.8,58.6,29.83,South,173,0.0,4.0,70,0.00,,CLR,0.00,VWS V14.01,2013-04-30 00:47:00,
2013-04-29 19:52:00,68.5,58.3,29.83,South,178,1.0,2.0,70,0.00,,CLR,0.00,VWS V14.01,2013-04-30 00:52:00,
2013-04-29 19:57:00,68.2,58.5,29.84,South,178,0.0,2.0,71,0.00,,CLR,0.00,VWS V14.01,2013-04-30 00:57:00,
2013-04-29 20:02:00,67.9,58.2,29.84,South,178,0.0,0.0,71,0.00,,CLR,0.00,VWS V14.01,2013-04-30 01:02:00,
2013-04-29 20:07:00,67.6,58.3,29.84,SSW,198,0.0,4.0,72,0.00,,CLR,0.00,VWS V14.01,2013-04-30 01:07:00,
2013-04-29 20:12:00,67.2,57.9,29.84,South,177,0.0,2.0,72,0.00,,CLR,0.00,VWS V14.01,2013-04-30 01:12:00,
2013-04-29 20:17:00,67.0,58.1,29.84,SE,138,0.0,6.0,73,0.00,,CLR,0.00,VWS V14.01,2013-04-30 01:17:00,
2013-04-29 20:22:00,66.7,57.8,29.84,South,171,4.0,5.0,73,0.00,,CLR,0.00,VWS V14.01,2013-04-30 01:22:00,
2013-04-29 20:27:00,66.7,57.8,29.84,South,171,2.0,5.0,73,0.00,,CLR,0.00,VWS V14.01,2013-04-30 01:27:00,
2013-04-29 20:32:00,66.5,57.6,29.84,South,182,5.0,7.0,73,0.00,,CLR,0.00,VWS V14.01,2013-04-30 01:32:00,
2013-04-29 20:37:00,66.4,57.9,29.84,South,186,1.0,7.0,74,0.00,,CLR,0.00,VWS V14.01,2013-04-30 01:37:00,
2013-04-29 20:42:00,66.5,57.6,29.84,SSE,164,0.0,4.0,73,0.00,,CLR,0.00,VWS V14.01,2013-04-30 01:42:00,
2013-04-29 20:47:00,66.5,57.6,29.84,South,189,1.0,7.0,73,0.00,,CLR,0.00,VWS V14.01,2013-04-30 01:47:00,
2013-04-29 20:52:00,66.5,57.6,29.84,South,182,4.0,7.0,73,0.00,,CLR,0.00,VWS V14.01,2013-04-30 01:52:00,
2013-04-29 20:57:00,66.4,57.5,29.84,South,175,1.0,9.0,73,0.00,,CLR,0.00,VWS V14.01,2013-04-30 01:57:00,
2013-04-29 21:02:00,66.4,57.5,29.85,South,173,0.0,4.0,73,0.00,,CLR,0.00,VWS V14.01,2013-04-30 02:02:00,
2013-04-29 21:07:00,66.3,57.8,29.85,South,186,2.0,8.0,74,0.00,,CLR,0.00,VWS V14.01,2013-04-30 02:07:00,
2013-04-29 21:12:00,66.3,57.4,29.85,South,190,0.0,2.0,73,0.00,,CLR,0.00,VWS V14.01,2013-04-30 02:12:00,
2013-04-29 21:17:00,66.4,57.5,29.85,South,189,3.0,9.0,73,0.00,,CLR,0.00,VWS V14.01,2013-04-30 02:17:00,
2013-04-29 21:22:00,66.5,57.6,29.85,South,190,6.0,11.0,73,0.00,,CLR,0.00,VWS V14.01,2013-04-30 02:22:00,
2013-04-29 21:27:00,66.5,57.6,29.85,SSW,197,3.0,11.0,73,0.00,,CLR,0.00,VWS V14.01,2013-04-30 02:27:00,
2013-04-29 21:32:00,66.4,57.5,29.85,South,169,5.0,10.0,73,0.00,,CLR,0.00,VWS V14.01,2013-04-30 02:32:00,
2013-04-29 21:37:00,66.3,57.8,29.85,South,171,7.0,10.0,74,0.00,,CLR,0.00,VWS V14.01,2013-04-30 02:37:00,
2013-04-29 21:42:00,66.4,57.9,29.85,South,186,7.0,8.0,74,0.00,,CLR,0.00,VWS V14.01,2013-04-30 02:42:00,
2013-04-29 21:47:00,66.4,57.9,29.85,SSW,193,7.0,8.0,74,0.00,,CLR,0.00,VWS V14.01,2013-04-30 02:47:00,
2013-04-29 21:52:00,66.5,58.0,29.85,SSE,148,2.0,6.0,74,0.00,,CLR,0.00,VWS V14.01,2013-04-30 02:52:00,
2013-04-29 21:57:00,66.4,57.9,29.84,SSW,193,5.0,10.0,74,0.00,,CLR,0.00,VWS V14.01,2013-04-30 02:57:00,
2013-04-29 22:02:00,66.3,58.2,29.84,South,176,5.0,8.0,75,0.00,,CLR,0.00,VWS V14.01,2013-04-30 03:02:00,
2013-04-29 22:07:00,66.1,58.0,29.85,SSW,201,3.0,10.0,75,0.00,,CLR,0.00,VWS V14.01,2013-04-30 03:07:00,
2013-04-29 22:12:00,66.0,57.9,29.85,South,175,1.0,8.0,75,0.00,,CLR,0.00,VWS V14.01,2013-04-30 03:12:00,
2013-04-29 22:17:00,65.9,57.8,29.85,SSW,194,4.0,8.0,75,0.00,,CLR,0.00,VWS V14.01,2013-04-30 03:17:00,
2013-04-29 22:22:00,65.8,58.0,29.85,SE,145,1.0,6.0,76,0.00,,CLR,0.00,VWS V14.01,2013-04-30 03:22:00,
2013-04-29 22:27:00,65.6,57.8,29.85,SW,231,1.0,12.0,76,0.00,,CLR,0.00,VWS V14.01,2013-04-30 03:27:00,
2013-04-29 22:32:00,65.6,58.2,29.85,South,178,5.0,5.0,77,0.00,,CLR,0.00,VWS V14.01,2013-04-30 03:32:00,
2013-04-29 22:37:00,65.5,58.1,29.85,South,180,2.0,11.0,77,0.00,,CLR,0.00,VWS V14.01,2013-04-30 03:37:00,
2013-04-29 22:42:00,65.4,58.0,29.85,South,180,0.0,6.0,77,0.00,,CLR,0.00,VWS V14.01,2013-04-30 03:42:00,
2013-04-29 22:47:00,65.2,57.8,29.85,South,169,0.0,8.0,77,0.00,,CLR,0.00,VWS V14.01,2013-04-30 03:47:00,
2013-04-29 22:52:00,65.0,58.0,29.85,South,185,3.0,4.0,78,0.00,,CLR,0.00,VWS V14.01,2013-04-30 03:52:00,
2013-04-29 22:57:00,64.9,57.9,29.85,South,180,2.0,7.0,78,0.00,,CLR,0.00,VWS V14.01,2013-04-30 03:57:00,
2013-04-29 23:01:00,64.8,57.8,29.85,South,178,1.0,8.0,78,0.00,,CLR,0.00,VWS V14.01,2013-04-30 04:01:00,
2013-04-29 23:02:00,64.7,57.7,29.85,SSW,198,5.0,5.0,78,0.00,,CLR,0.00,VWS V14.01,2013-04-30 04:02:00,
2013-04-29 23:07:00,64.7,57.7,29.85,SSW,204,2.0,8.0,78,0.00,,CLR,0.00,VWS V14.01,2013-04-30 04:07:00,
2013-04-29 23:11:00,64.6,58.0,29.84,South,184,2.0,8.0,79,0.00,,CLR,0.00,VWS V14.01,2013-04-30 04:11:00,
2013-04-29 23:17:00,64.4,57.8,29.84,South,188,1.0,9.0,79,0.00,,CLR,0.00,VWS V14.01,2013-04-30 04:17:00,
2013-04-29 23:22:00,64.4,57.8,29.84,South,182,2.0,7.0,79,0.00,,CLR,0.00,VWS V14.01,2013-04-30 04:22:00,
2013-04-29 23:27:00,64.4,57.8,29.84,SSE,159,1.0,7.0,79,0.00,,CLR,0.00,VWS V14.01,2013-04-30 04:27:00,
2013-04-29 23:32:00,64.4,57.8,29.84,SSE,155,2.0,8.0,79,0.00,,CLR,0.00,VWS V14.01,2013-04-30 04:32:00,
2013-04-29 23:37:00,64.4,57.8,29.84,SSW,192,2.0,9.0,79,0.00,,CLR,0.00,VWS V14.01,2013-04-30 04:37:00,
2013-04-29 23:42:00,64.4,57.8,29.84,South,184,6.0,6.0,79,0.00,,CLR,0.00,VWS V14.01,2013-04-30 04:42:00,
2013-04-29 23:47:00,64.5,57.8,29.84,South,190,6.0,10.0,79,0.00,,CLR,0.00,VWS V14.01,2013-04-30 04:47:00,
2013-04-29 23:52:00,64.6,58.0,29.84,South,186,3.0,5.0,79,0.00,,CLR,0.00,VWS V14.01,2013-04-30 04:52:00,
2013-04-29 23:57:00,64.6,58.0,29.84,South,190,0.0,8.0,79,0.00,,CLR,0.00,VWS V14.01,2013-04-30 04:57:00,